createdAt,value
2022-11-07T00:01:00.269Z,100546.16
2022-11-07T00:03:27.879Z,100553.16
2022-11-07T00:05:54.182Z,100541.03
2022-11-07T00:08:20.465Z,100545.81
2022-11-07T00:10:46.756Z,100545.66
2022-11-07T00:13:13.375Z,100549.31
2022-11-07T00:15:39.896Z,100550.00
2022-11-07T00:18:06.175Z,100549.16
2022-11-07T00:20:33.843Z,100549.50
2022-11-07T00:23:00.145Z,100556.63
2022-11-07T00:25:26.543Z,100557.63
2022-11-07T00:27:52.878Z,100554.44
2022-11-07T00:30:19.146Z,100559.59
2022-11-07T00:32:45.444Z,100564.06
2022-11-07T00:35:11.750Z,100556.41
2022-11-07T00:37:39.376Z,100559.38
2022-11-07T00:40:06.442Z,100569.16
2022-11-07T00:42:32.750Z,100567.03
2022-11-07T00:44:59.023Z,100569.03
2022-11-07T00:47:25.303Z,100568.03
2022-11-07T00:49:51.609Z,100566.88
2022-11-07T00:52:17.885Z,100573.03
2022-11-07T00:54:45.529Z,100567.72
2022-11-07T00:57:11.834Z,100561.41
2022-11-07T00:59:38.141Z,100572.34
2022-11-07T01:02:04.563Z,100576.31
2022-11-07T01:04:30.926Z,100585.44
2022-11-07T01:06:57.211Z,100581.28
2022-11-07T01:09:23.495Z,100574.97
2022-11-07T01:11:51.155Z,100577.63
2022-11-07T01:14:18.752Z,100581.59
2022-11-07T01:16:45.606Z,100585.22
2022-11-07T01:19:11.919Z,100580.44
2022-11-07T01:21:38.372Z,100594.72
2022-11-07T01:24:05.240Z,100589.09
2022-11-07T01:26:31.547Z,100598.19
2022-11-07T01:28:59.276Z,100600.03
2022-11-07T01:31:25.619Z,100603.81
2022-11-07T01:33:51.938Z,100604.19
2022-11-07T01:36:18.364Z,100612.00
2022-11-07T01:38:45.659Z,100609.00
2022-11-07T01:41:14.216Z,100606.22
2022-11-07T01:43:42.350Z,100610.72
2022-11-07T01:46:09.989Z,100604.91
2022-11-07T01:48:36.435Z,100601.41
2022-11-07T01:51:02.840Z,100601.28
2022-11-07T01:53:29.144Z,100601.28
2022-11-07T01:55:55.476Z,100602.47
2022-11-07T01:58:21.792Z,100599.81
2022-11-07T02:00:48.091Z,100601.47
2022-11-07T02:03:17.427Z,100600.66
2022-11-07T02:05:46.130Z,100599.16
2022-11-07T02:08:13.825Z,100596.50
2022-11-07T02:10:40.645Z,100599.31
2022-11-07T02:13:07.111Z,100600.97
2022-11-07T02:15:34.737Z,100605.13
2022-11-07T02:18:01.158Z,100608.13
2022-11-07T02:20:29.187Z,100614.09
2022-11-07T02:22:56.732Z,100606.81
2022-11-07T02:25:24.517Z,100610.63
2022-11-07T02:27:52.833Z,100603.47
2022-11-07T02:30:20.009Z,100602.97
2022-11-07T02:32:47.315Z,100601.13
2022-11-07T02:35:34.916Z,100602.81
2022-11-07T02:38:01.669Z,100606.78
2022-11-07T02:40:30.385Z,100600.97
2022-11-07T02:42:56.861Z,100596.66
2022-11-07T02:45:26.358Z,100598.63
2022-11-07T02:47:52.667Z,100592.31
2022-11-07T02:50:19.221Z,100598.78
2022-11-07T02:52:45.520Z,100603.59
2022-11-07T02:55:12.971Z,100597.47
2022-11-07T02:57:40.817Z,100606.72
2022-11-07T03:00:08.319Z,100599.91
2022-11-07T03:02:34.664Z,100610.53
2022-11-07T03:05:01.106Z,100608.88
2022-11-07T03:07:27.604Z,100599.75
2022-11-07T03:09:53.912Z,100603.25
2022-11-07T03:12:20.225Z,100602.94
2022-11-07T03:14:47.846Z,100606.72
2022-11-07T03:17:14.192Z,100620.03
2022-11-07T03:19:40.500Z,100621.50
2022-11-07T03:22:06.778Z,100613.03
2022-11-07T03:24:33.068Z,100611.22
2022-11-07T03:26:59.355Z,100615.53
2022-11-07T03:29:25.678Z,100615.22
2022-11-07T03:31:53.298Z,100605.91
2022-11-07T03:34:19.600Z,100601.97
2022-11-07T03:36:45.884Z,100612.25
2022-11-07T03:39:12.169Z,100604.97
2022-11-07T03:41:38.474Z,100597.84
2022-11-07T03:44:04.894Z,100606.78
2022-11-07T03:46:31.175Z,100607.09
2022-11-07T03:48:58.782Z,100606.44
2022-11-07T03:51:25.087Z,100599.63
2022-11-07T03:53:51.383Z,100611.91
2022-11-07T03:56:17.693Z,100610.25
2022-11-07T03:58:43.965Z,100608.41
2022-11-07T04:01:10.303Z,100617.06
2022-11-07T04:03:36.592Z,100611.91
2022-11-07T04:06:04.367Z,100602.94
2022-11-07T04:08:30.642Z,100615.91
2022-11-07T04:10:56.933Z,100607.94
2022-11-07T04:13:23.226Z,100613.78
2022-11-07T04:15:49.971Z,100617.59
2022-11-07T04:18:16.286Z,100618.91
2022-11-07T04:20:42.606Z,100612.59
2022-11-07T04:23:10.271Z,100610.78
2022-11-07T04:25:36.708Z,100606.13
2022-11-07T04:28:03.470Z,100611.75
2022-11-07T04:30:29.765Z,100613.78
2022-11-07T04:32:57.051Z,100608.47
2022-11-07T04:35:24.976Z,100603.31
2022-11-07T04:37:51.586Z,100603.97
2022-11-07T04:40:19.959Z,100599.97
2022-11-07T04:42:46.776Z,100609.59
2022-11-07T04:45:13.504Z,100608.47
2022-11-07T04:47:40.799Z,100612.25
2022-11-07T04:50:09.270Z,100626.53
2022-11-07T04:52:35.559Z,100618.88
2022-11-07T04:55:01.848Z,100627.69
2022-11-07T04:57:29.524Z,100619.72
2022-11-07T04:59:55.798Z,100621.38
2022-11-07T05:02:23.180Z,100624.03
2022-11-07T05:04:49.578Z,100623.50
2022-11-07T05:07:15.937Z,100631.00
2022-11-07T05:09:42.217Z,100626.50
2022-11-07T05:12:08.517Z,100623.19
2022-11-07T05:14:36.160Z,100614.91
2022-11-07T05:17:03.619Z,100619.03
2022-11-07T05:19:30.644Z,100619.41
2022-11-07T05:21:56.976Z,100620.22
2022-11-07T05:24:23.253Z,100630.34
2022-11-07T05:26:49.530Z,100628.69
2022-11-07T05:29:15.865Z,100620.94
2022-11-07T05:31:43.500Z,100628.91
2022-11-07T05:34:14.342Z,100618.44
2022-11-07T05:36:40.931Z,100624.25
2022-11-07T05:39:07.228Z,100620.59
2022-11-07T05:41:35.262Z,100623.91
2022-11-07T05:44:01.592Z,100624.09
2022-11-07T05:46:27.988Z,100629.09
2022-11-07T05:49:00.684Z,100634.91
2022-11-07T05:51:27.491Z,100639.38
2022-11-07T05:53:53.785Z,100634.59
2022-11-07T05:56:20.076Z,100634.28
2022-11-07T05:58:46.369Z,100636.09
2022-11-07T06:01:12.719Z,100637.09
2022-11-07T06:03:39.029Z,100637.75
2022-11-07T06:06:06.811Z,100639.44
2022-11-07T06:08:33.088Z,100636.59
2022-11-07T06:11:03.563Z,100648.03
2022-11-07T06:13:29.872Z,100643.56
2022-11-07T06:15:57.224Z,100636.94
2022-11-07T06:18:23.599Z,100634.13
2022-11-07T06:20:50.146Z,100631.47
2022-11-07T06:23:18.529Z,100631.16
2022-11-07T06:25:45.287Z,100632.97
2022-11-07T06:28:12.370Z,100629.63
2022-11-07T06:30:38.666Z,100635.44
2022-11-07T06:33:06.141Z,100638.59
2022-11-07T06:35:32.726Z,100643.09
2022-11-07T06:38:01.034Z,100648.72
2022-11-07T06:40:28.686Z,100655.69
2022-11-07T06:42:54.995Z,100658.72
2022-11-07T06:45:21.298Z,100652.22
2022-11-07T06:47:47.592Z,100671.03
2022-11-07T06:50:13.931Z,100671.50
2022-11-07T06:52:40.222Z,100671.19
2022-11-07T06:55:07.043Z,100671.19
2022-11-07T06:57:34.676Z,100672.69
2022-11-07T07:00:00.973Z,100675.03
2022-11-07T07:02:56.332Z,100678.38
2022-11-07T07:05:18.470Z,100684.50
2022-11-07T07:07:47.228Z,100687.84
2022-11-07T07:10:13.533Z,100698.81
2022-11-07T07:12:41.167Z,100697.13
2022-11-07T07:15:08.140Z,100698.66
2022-11-07T07:17:34.445Z,100701.50
2022-11-07T07:20:00.754Z,100706.81
2022-11-07T07:22:27.048Z,100705.31
2022-11-07T07:24:53.363Z,100712.97
2022-11-07T07:27:19.785Z,100714.97
2022-11-07T07:29:47.451Z,100715.63
2022-11-07T07:32:13.755Z,100709.78
2022-11-07T07:34:40.051Z,100716.94
2022-11-07T07:37:06.348Z,100727.41
2022-11-07T07:39:32.641Z,100725.44
2022-11-07T07:41:58.979Z,100727.09
2022-11-07T07:44:25.278Z,100733.72
2022-11-07T07:46:52.948Z,100735.09
2022-11-07T07:49:19.245Z,100739.44
2022-11-07T07:51:45.536Z,100734.78
2022-11-07T07:54:11.958Z,100737.94
2022-11-07T07:56:38.262Z,100745.41
2022-11-07T07:59:04.547Z,100736.44
2022-11-07T08:01:30.952Z,100746.09
2022-11-07T08:04:01.818Z,100743.41
2022-11-07T08:06:29.012Z,100748.75
2022-11-07T08:08:55.290Z,100743.41
2022-11-07T08:11:21.605Z,100746.91
2022-11-07T08:13:47.889Z,100740.91
2022-11-07T08:16:14.179Z,100749.25
2022-11-07T08:18:40.462Z,100743.75
2022-11-07T08:21:08.510Z,100747.41
2022-11-07T08:23:34.855Z,100756.72
2022-11-07T08:26:01.313Z,100745.75
2022-11-07T08:28:29.392Z,100747.56
2022-11-07T08:30:56.462Z,100751.72
2022-11-07T08:33:22.839Z,100755.88
2022-11-07T08:35:49.396Z,100749.41
2022-11-07T08:38:17.020Z,100761.56
2022-11-07T08:40:43.324Z,100764.00
2022-11-07T08:43:09.666Z,100762.19
2022-11-07T08:45:35.965Z,100763.03
2022-11-07T08:48:02.306Z,100759.34
2022-11-07T08:50:28.627Z,100761.50
2022-11-07T08:52:59.561Z,100762.34
2022-11-07T08:55:29.135Z,100767.00
2022-11-07T08:57:57.845Z,100764.84
2022-11-07T09:00:24.227Z,100779.00
2022-11-07T09:03:30.795Z,100768.81
2022-11-07T09:05:36.862Z,100776.63
2022-11-07T09:08:03.262Z,100781.63
2022-11-07T09:10:30.888Z,100782.97
2022-11-07T09:12:57.202Z,100785.25
2022-11-07T09:15:23.509Z,100790.25
2022-11-07T09:17:49.832Z,100794.94
2022-11-07T09:20:16.607Z,100793.94
2022-11-07T09:22:42.921Z,100796.06
2022-11-07T09:25:09.422Z,100804.38
2022-11-07T09:27:37.087Z,100802.22
2022-11-07T09:30:03.490Z,100802.22
2022-11-07T09:32:45.955Z,100811.88
2022-11-07T09:35:12.751Z,100812.22
2022-11-07T09:37:39.491Z,100807.69
2022-11-07T09:40:06.402Z,100811.34
2022-11-07T09:42:38.581Z,100808.84
2022-11-07T09:45:11.060Z,100813.50
2022-11-07T09:47:38.791Z,100811.84
2022-11-07T09:50:06.826Z,100809.53
2022-11-07T09:52:38.175Z,100814.03
2022-11-07T09:55:08.764Z,100819.34
2022-11-07T09:57:35.927Z,100822.53
2022-11-07T10:00:04.275Z,100832.16
2022-11-07T10:02:33.651Z,100819.84
2022-11-07T10:05:02.079Z,100821.16
2022-11-07T10:07:34.929Z,100814.81
2022-11-07T10:10:03.991Z,100813.31
2022-11-07T10:12:45.032Z,100811.94
2022-11-07T10:15:15.854Z,100809.78
2022-11-07T10:17:46.178Z,100813.78
2022-11-07T10:20:25.175Z,100821.78
2022-11-07T10:23:05.130Z,100816.44
2022-11-07T10:25:35.158Z,100825.09
2022-11-07T10:28:11.643Z,100826.88
2022-11-07T10:30:38.045Z,100819.38
2022-11-07T10:33:11.207Z,100825.81
2022-11-07T10:35:39.263Z,100820.28
2022-11-07T10:38:15.668Z,100825.25
2022-11-07T10:40:42.392Z,100822.19
2022-11-07T10:43:13.227Z,100825.47
2022-11-07T10:45:40.053Z,100825.22
2022-11-07T10:48:07.862Z,100814.69
2022-11-07T10:50:34.197Z,100821.44
2022-11-07T10:53:01.218Z,100825.53
2022-11-07T10:55:28.400Z,100835.97
2022-11-07T10:57:57.565Z,100825.72
2022-11-07T11:00:25.240Z,100830.72
2022-11-07T11:02:52.164Z,100827.88
2022-11-07T11:05:24.188Z,100832.38
2022-11-07T11:07:50.890Z,100834.88
2022-11-07T11:10:19.499Z,100837.00
2022-11-07T11:12:46.399Z,100837.50
2022-11-07T11:15:15.642Z,100825.47
2022-11-07T11:17:42.003Z,100836.16
2022-11-07T11:20:23.255Z,100833.00
2022-11-07T11:22:52.643Z,100828.31
2022-11-07T11:25:20.137Z,100825.47
2022-11-07T11:27:48.027Z,100824.53
2022-11-07T11:30:16.530Z,100824.53
2022-11-07T11:32:44.781Z,100830.91
2022-11-07T11:35:29.516Z,100832.56
2022-11-07T11:38:00.720Z,100824.28
2022-11-07T11:40:36.266Z,100828.97
2022-11-07T11:43:05.340Z,100813.84
2022-11-07T11:45:35.882Z,100815.16
2022-11-07T11:48:05.277Z,100810.25
2022-11-07T11:50:35.528Z,100815.06
2022-11-07T11:53:03.160Z,100817.56
2022-11-07T11:55:35.471Z,100815.72
2022-11-07T11:58:07.271Z,100809.53
2022-11-07T12:00:39.007Z,100814.53
2022-11-07T12:03:30.709Z,100815.38
2022-11-07T12:06:04.455Z,100809.81
2022-11-07T12:08:40.201Z,100824.41
2022-11-07T12:11:13.346Z,100814.06
2022-11-07T12:13:47.310Z,100819.09
2022-11-07T12:16:19.795Z,100819.66
2022-11-07T12:18:49.636Z,100811.00
2022-11-07T12:21:22.899Z,100815.88
2022-11-07T12:23:55.558Z,100825.91
2022-11-07T12:26:24.419Z,100810.16
2022-11-07T12:28:55.441Z,100818.53
2022-11-07T12:31:32.762Z,100821.59
2022-11-07T12:34:04.644Z,100821.88
2022-11-07T12:36:38.091Z,100820.56
2022-11-07T12:39:13.671Z,100817.88
2022-11-07T12:41:44.500Z,100823.72
2022-11-07T12:44:25.818Z,100819.50
2022-11-07T12:46:54.002Z,100817.25
2022-11-07T12:49:44.611Z,100816.91
2022-11-07T12:52:16.603Z,100815.72
2022-11-07T12:54:48.469Z,100812.03
2022-11-07T12:57:19.254Z,100816.16
2022-11-07T12:59:49.447Z,100810.00
2022-11-07T13:02:21.839Z,100807.34
2022-11-07T13:04:51.919Z,100803.44
2022-11-07T13:07:20.918Z,100808.63
2022-11-07T13:09:53.286Z,100799.41
2022-11-07T13:12:25.569Z,100810.56
2022-11-07T13:14:52.404Z,100809.81
2022-11-07T13:17:19.452Z,100807.31
2022-11-07T13:19:46.489Z,100803.16
2022-11-07T13:22:20.605Z,100798.38
2022-11-07T13:24:52.453Z,100799.03
2022-11-07T13:27:21.279Z,100796.72
2022-11-07T13:29:47.647Z,100792.56
2022-11-07T13:32:16.440Z,100800.06
2022-11-07T13:34:48.279Z,100797.44
2022-11-07T13:37:19.881Z,100791.09
2022-11-07T13:39:48.751Z,100794.59
2022-11-07T13:42:17.790Z,100791.75
2022-11-07T13:44:49.572Z,100795.06
2022-11-07T13:47:19.590Z,100786.88
2022-11-07T13:49:47.431Z,100783.34
2022-11-07T13:52:17.315Z,100782.16
2022-11-07T13:54:48.536Z,100778.91
2022-11-07T13:57:17.408Z,100780.88
2022-11-07T13:59:47.733Z,100777.63
2022-11-07T14:02:20.773Z,100778.63
2022-11-07T14:05:14.664Z,100770.00
2022-11-07T14:07:38.872Z,100771.53
2022-11-07T14:10:07.491Z,100786.28
2022-11-07T14:12:36.607Z,100781.97
2022-11-07T14:15:04.867Z,100787.69
2022-11-07T14:17:32.300Z,100786.28
2022-11-07T14:20:04.843Z,100790.28
2022-11-07T14:22:31.160Z,100791.94
2022-11-07T14:24:57.469Z,100793.13
2022-11-07T14:27:24.788Z,100781.88
2022-11-07T14:29:51.714Z,100782.44
2022-11-07T14:32:19.449Z,100790.16
2022-11-07T14:34:46.861Z,100788.72
2022-11-07T14:37:13.836Z,100799.41
2022-11-07T14:39:40.402Z,100790.09
2022-11-07T14:42:06.831Z,100784.66
2022-11-07T14:44:53.957Z,100781.34
2022-11-07T14:47:23.719Z,100781.78
2022-11-07T14:49:51.165Z,100780.50
2022-11-07T14:52:19.984Z,100777.19
2022-11-07T14:54:47.173Z,100777.19
2022-11-07T14:57:14.236Z,100782.72
2022-11-07T14:59:41.249Z,100784.38
2022-11-07T15:02:19.181Z,100791.09
2022-11-07T15:04:47.913Z,100794.31
2022-11-07T15:07:20.795Z,100796.53
2022-11-07T15:09:47.441Z,100786.00
2022-11-07T15:12:15.341Z,100786.97
2022-11-07T15:14:41.628Z,100786.84
2022-11-07T15:17:20.272Z,100789.69
2022-11-07T15:19:54.492Z,100793.94
2022-11-07T15:22:24.452Z,100788.97
2022-11-07T15:24:50.760Z,100781.59
2022-11-07T15:27:19.089Z,100789.06
2022-11-07T15:29:50.195Z,100784.75
2022-11-07T15:32:18.180Z,100783.72
2022-11-07T15:37:32.163Z,100785.47
2022-11-07T15:39:58.509Z,100785.81
2022-11-07T15:42:24.826Z,100793.22
2022-11-07T15:44:51.108Z,100788.41
2022-11-07T15:47:18.731Z,100782.75
2022-11-07T15:49:45.267Z,100784.28
2022-11-07T15:52:11.573Z,100783.81
2022-11-07T15:54:39.220Z,100790.00
2022-11-07T15:57:06.618Z,100790.66
2022-11-07T15:59:33.622Z,100800.22
2022-11-07T16:02:00.258Z,100797.56
2022-11-07T16:04:26.678Z,100803.06
2022-11-07T16:06:53.098Z,100801.78
2022-11-07T16:09:20.632Z,100803.59
2022-11-07T16:11:48.443Z,100794.75
2022-11-07T16:14:42.058Z,100797.59
2022-11-07T16:17:02.277Z,100797.91
2022-11-07T16:19:29.292Z,100788.59
2022-11-07T16:21:55.592Z,100780.75
2022-11-07T16:24:21.891Z,100792.25
2022-11-07T16:26:51.150Z,100782.59
2022-11-07T16:29:17.491Z,100783.25
2022-11-07T16:31:43.796Z,100785.25
2022-11-07T16:34:10.460Z,100789.59
2022-11-07T16:36:37.056Z,100790.59
2022-11-07T16:39:04.200Z,100802.41
2022-11-07T16:41:31.249Z,100806.63
2022-11-07T16:43:59.288Z,100809.13
2022-11-07T16:46:26.218Z,100809.50
2022-11-07T16:48:53.830Z,100809.31
2022-11-07T16:51:20.855Z,100809.13
2022-11-07T16:53:47.288Z,100800.09
2022-11-07T16:56:23.016Z,100803.50
2022-11-07T16:58:49.394Z,100809.50
2022-11-07T17:01:17.172Z,100808.28
2022-11-07T17:03:43.494Z,100806.63
2022-11-07T17:06:15.631Z,100814.03
2022-11-07T17:08:41.904Z,100818.03
2022-11-07T17:11:08.229Z,100817.22
2022-11-07T17:13:34.645Z,100814.53
2022-11-07T17:16:01.025Z,100825.06
2022-11-07T17:18:28.694Z,100816.69
2022-11-07T17:20:55.075Z,100824.03
2022-11-07T17:23:26.855Z,100815.19
2022-11-07T17:25:56.366Z,100815.03
2022-11-07T17:28:22.655Z,100814.66
2022-11-07T17:30:48.968Z,100814.84
2022-11-07T17:33:15.243Z,100818.53
2022-11-07T17:35:42.899Z,100818.53
2022-11-07T17:38:11.721Z,100822.88
2022-11-07T17:40:37.991Z,100823.50
2022-11-07T17:43:04.288Z,100827.38
2022-11-07T17:45:30.562Z,100823.22
2022-11-07T17:47:56.872Z,100826.06
2022-11-07T17:50:23.484Z,100825.06
2022-11-07T17:52:51.776Z,100825.41
2022-11-07T17:55:18.159Z,100821.72
2022-11-07T17:57:44.568Z,100823.56
2022-11-07T18:00:14.275Z,100830.25
2022-11-07T18:02:40.632Z,100819.22
2022-11-07T18:05:07.370Z,100825.31
2022-11-07T18:07:33.702Z,100826.47
2022-11-07T18:10:01.316Z,100827.84
2022-11-07T18:12:27.708Z,100824.72
2022-11-07T18:14:54.003Z,100831.06
2022-11-07T18:17:20.307Z,100833.91
2022-11-07T18:19:47.558Z,100828.44
2022-11-07T18:22:13.835Z,100830.63
2022-11-07T18:24:40.163Z,100825.63
2022-11-07T18:27:10.497Z,100834.19
2022-11-07T18:29:38.513Z,100827.38
2022-11-07T18:32:04.955Z,100829.06
2022-11-07T18:34:31.477Z,100835.59
2022-11-07T18:36:57.926Z,100834.44
2022-11-07T18:39:24.556Z,100833.94
2022-11-07T18:41:52.679Z,100829.66
2022-11-07T18:44:20.380Z,100832.00
2022-11-07T18:46:47.149Z,100825.66
2022-11-07T18:49:14.636Z,100828.66
2022-11-07T18:51:41.431Z,100842.19
2022-11-07T18:54:07.703Z,100831.50
2022-11-07T18:56:34.005Z,100831.50
2022-11-07T18:59:00.285Z,100831.69
2022-11-07T19:01:29.394Z,100832.50
2022-11-07T19:03:56.465Z,100833.53
2022-11-07T19:06:23.717Z,100826.16
2022-11-07T19:08:50.050Z,100836.00
2022-11-07T19:11:17.174Z,100832.16
2022-11-07T19:13:44.221Z,100830.66
2022-11-07T19:16:11.188Z,100821.50
2022-11-07T19:18:38.865Z,100823.31
2022-11-07T19:21:05.343Z,100826.53
2022-11-07T19:23:31.940Z,100824.03
2022-11-07T19:25:58.242Z,100827.00
2022-11-07T19:28:24.514Z,100823.66
2022-11-07T19:30:50.878Z,100822.88
2022-11-07T19:33:17.636Z,100834.72
2022-11-07T19:35:46.084Z,100830.34
2022-11-07T19:38:12.911Z,100834.66
2022-11-07T19:40:39.204Z,100826.84
2022-11-07T19:43:05.524Z,100834.00
2022-11-07T19:45:31.819Z,100834.84
2022-11-07T19:47:58.131Z,100833.53
2022-11-07T19:50:24.431Z,100836.84
2022-11-07T19:52:52.065Z,100837.66
2022-11-07T19:55:18.467Z,100842.34
2022-11-07T19:57:44.753Z,100843.00
2022-11-07T20:00:11.682Z,100838.03
2022-11-07T20:02:44.047Z,100830.50
2022-11-07T20:05:11.003Z,100833.16
2022-11-07T20:07:37.864Z,100833.88
2022-11-07T20:10:06.381Z,100841.06
2022-11-07T20:12:33.220Z,100830.66
2022-11-07T20:14:59.486Z,100830.50
2022-11-07T20:17:25.767Z,100841.53
2022-11-07T20:19:52.059Z,100839.22
2022-11-07T20:22:18.402Z,100849.19
2022-11-07T20:24:44.677Z,100850.56
2022-11-07T20:27:12.322Z,100855.34
2022-11-07T20:29:38.630Z,100853.84
2022-11-07T20:32:05.196Z,100855.88
2022-11-07T20:34:31.547Z,100854.56
2022-11-07T20:36:57.833Z,100859.72
2022-11-07T20:39:24.126Z,100853.56
2022-11-07T20:41:50.410Z,100857.41
2022-11-07T20:44:18.078Z,100853.91
2022-11-07T20:46:44.972Z,100860.41
2022-11-07T20:49:12.370Z,100863.44
2022-11-07T20:51:38.771Z,100855.44
2022-11-07T20:54:05.539Z,100858.44
2022-11-07T20:56:31.853Z,100859.13
2022-11-07T20:58:58.178Z,100847.66
2022-11-07T21:01:26.835Z,100850.31
2022-11-07T21:03:54.192Z,100851.44
2022-11-07T21:06:20.494Z,100853.13
2022-11-07T21:08:48.442Z,100845.78
2022-11-07T21:11:15.651Z,100846.63
2022-11-07T21:13:45.389Z,100849.94
2022-11-07T21:16:14.481Z,100856.63
2022-11-07T21:18:42.141Z,100857.28
2022-11-07T21:21:09.502Z,100852.13
2022-11-07T21:23:36.700Z,100847.78
2022-11-07T21:26:05.553Z,100849.09
2022-11-07T21:28:31.876Z,100845.44
2022-11-07T21:30:58.475Z,100841.94
2022-11-07T21:33:24.826Z,100842.59
2022-11-07T21:35:52.438Z,100840.09
2022-11-07T21:38:18.718Z,100839.28
2022-11-07T21:40:45.007Z,100835.78
2022-11-07T21:43:11.348Z,100839.94
2022-11-07T21:45:37.720Z,100834.09
2022-11-07T21:48:04.195Z,100831.09
2022-11-07T21:50:44.315Z,100838.78
2022-11-07T21:53:12.586Z,100837.28
2022-11-07T21:55:38.903Z,100825.44
2022-11-07T21:58:05.219Z,100826.81
2022-11-07T22:00:35.901Z,100824.78
2022-11-07T22:03:03.157Z,100824.63
2022-11-07T22:05:29.433Z,100821.66
2022-11-07T22:07:55.719Z,100823.66
2022-11-07T22:10:23.332Z,100821.31
2022-11-07T22:12:49.645Z,100816.00
2022-11-07T22:15:16.021Z,100813.84
2022-11-07T22:17:42.600Z,100812.34
2022-11-07T22:20:09.515Z,100811.03
2022-11-07T22:22:35.817Z,100812.22
2022-11-07T22:25:02.129Z,100802.72
2022-11-07T22:27:29.767Z,100800.56
2022-11-07T22:29:56.044Z,100800.72
2022-11-07T22:32:22.335Z,100799.59
2022-11-07T22:34:48.617Z,100799.75
2022-11-07T22:37:14.890Z,100800.25
2022-11-07T22:39:41.181Z,100799.41
2022-11-07T22:42:07.468Z,100793.44
2022-11-07T22:44:35.103Z,100789.63
2022-11-07T22:47:01.398Z,100788.94
2022-11-07T22:49:27.674Z,100790.31
2022-11-07T22:51:53.969Z,100787.66
2022-11-07T22:54:20.272Z,100789.81
2022-11-07T22:56:46.574Z,100782.16
2022-11-07T22:59:12.867Z,100779.34
2022-11-07T23:01:41.287Z,100781.16
2022-11-07T23:04:09.582Z,100784.31
2022-11-07T23:06:35.952Z,100777.69
2022-11-07T23:09:02.247Z,100775.19
2022-11-07T23:11:46.978Z,100781.53
2022-11-07T23:14:15.367Z,100780.34
2022-11-07T23:16:44.900Z,100774.53
2022-11-07T23:19:12.680Z,100775.03
2022-11-07T23:21:39.175Z,100771.69
2022-11-07T23:24:05.981Z,100774.72
2022-11-07T23:26:32.740Z,100772.38
2022-11-07T23:28:59.264Z,100765.88
2022-11-07T23:31:25.576Z,100761.91
2022-11-07T23:33:53.172Z,100761.56
2022-11-07T23:36:19.474Z,100759.56
2022-11-07T23:38:45.754Z,100762.38
2022-11-07T23:41:13.087Z,100756.41
2022-11-07T23:43:39.412Z,100753.03
2022-11-07T23:46:06.068Z,100750.72
2022-11-07T23:48:32.356Z,100748.38
2022-11-07T23:51:00.558Z,100750.22
2022-11-07T23:53:26.823Z,100754.03
2022-11-07T23:55:53.117Z,100752.88
2022-11-07T23:58:19.706Z,100744.22
